Latest Weather Observations for Geelong Racecourse

IDV60801

Issued at 9:31 am EDT Sunday 1 February 2015 (issued every 30 minutes, with the page automatically refreshed every 10 minutes)

About weather observations | Map of weather stations | Latest weather observations for VIC | Other Formats
Station Details ID: 087184 Name: GEELONG RACECOURSE Lat: -38.17 Lon: 144.38 Height: 12.9 m
Data from the previous 72 hours. | See also: Recent months at Geelong Racecourse
Date/Time
EDT
Temp
°C
App
Temp
°C
Dew
Point
Rel
Hum
%
Delta-T
°C
Wind Press
QNH
hPa
Press
MSL
hPa
Rain
since 9 am
mm
Dir
 
Spd
km/h
Gust
km/h
Spd
kts
Gust
kts
01/09:30am 14.5 13.1 13.4 93 0.6 W 13 20 7 11 1013.8 1013.8 0.0
01/09:00am 14.2 13.5 13.1 93 0.6 W 9 17 5 9 1013.6 1013.6 2.2
01/08:30am 13.9 13.1 12.8 93 0.6 W 9 17 5 9 1013.5 1013.5 2.2
01/08:00am 13.1 11.6 12.0 93 0.6 W 11 17 6 9 1013.3 1013.3 2.2
01/07:30am 12.8 11.6 11.7 93 0.6 WNW 9 13 5 7 1013.0 1013.0 2.2
01/07:00am 12.7 11.1 11.6 93 0.6 W 11 15 6 8 1012.9 1012.9 2.2
01/06:30am 12.7 11.5 11.6 93 0.6 W 9 15 5 8 1012.8 1012.8 2.0
01/06:00am 12.9 11.0 11.8 93 0.6 W 13 19 7 10 1012.6 1012.6 1.4
01/05:30am 12.9 11.4 11.8 93 0.6 W 11 19 6 10 1012.5 1012.5 1.2
01/05:00am 13.0 11.1 11.9 93 0.6 W 13 19 7 10 1012.5 1012.5 1.0
01/04:30am 13.2 11.7 11.9 92 0.7 WSW 11 17 6 9 1012.7 1012.7 1.0
01/04:00am 13.6 11.9 12.3 92 0.7 W 13 19 7 10 1012.8 1012.8 1.0
01/03:30am 13.5 12.1 12.2 92 0.7 W 11 17 6 9 1012.8 1012.8 1.0
01/03:00am 13.6 12.2 12.3 92 0.7 W 11 15 6 8 1012.9 1012.9 0.8
01/02:30am 13.7 12.0 12.4 92 0.7 W 13 19 7 10 1013.0 1013.0 0.8
01/02:00am 13.9 12.2 12.6 92 0.7 W 13 17 7 9 1013.1 1013.1 0.8
01/01:30am 14.1 12.9 12.8 92 0.7 W 11 15 6 8 1013.4 1013.4 0.8
01/01:00am 14.2 13.0 12.9 92 0.7 W 11 17 6 9 1013.4 1013.4 0.8
01/12:30am 14.3 13.2 13.0 92 0.7 W 11 15 6 8 1013.5 1013.5 0.8
01/12:00am 14.3 13.2 13.0 92 0.7 W 11 15 6 8 1013.6 1013.6 0.8
 
Date/Time
EDT
Temp
°C
App
Temp
°C
Dew
Point
Rel
Hum
%
Delta-T
°C
Wind Press
QNH
hPa
Press
MSL
hPa
Rain
since 9 am
mm
Dir
 
Spd
km/h
Gust
km/h
Spd
kts
Gust
kts
31/11:30pm 14.3 13.5 13.0 92 0.7 WSW 9 15 5 8 1013.8 1013.8 0.8
31/11:00pm 14.4 13.7 13.3 93 0.6 W 9 13 5 7 1014.0 1014.0 0.8
31/10:30pm 14.3 13.6 13.2 93 0.6 W 9 13 5 7 1014.1 1014.1 0.8
31/10:00pm 14.1 13.0 13.0 93 0.6 WSW 11 19 6 10 1014.1 1014.1 0.8
31/09:30pm 14.2 13.1 13.1 93 0.6 WSW 11 19 6 10 1013.9 1013.9 0.6
31/09:00pm 14.4 13.0 13.3 93 0.6 WSW 13 20 7 11 1013.7 1013.7 0.4
31/08:30pm 14.6 13.2 13.3 92 0.7 SW 13 20 7 11 1013.8 1013.8 0.4
31/08:00pm 14.9 12.8 13.6 92 0.7 WSW 17 22 9 12 1013.5 1013.5 0.0
31/07:30pm 15.2 12.7 13.6 90 0.9 SW 19 26 10 14 1013.0 1013.0 0.0
31/07:00pm 15.5 13.0 14.2 92 0.7 SW 20 28 11 15 1012.9 1012.9 0.0
31/06:30pm 16.3 12.7 13.2 82 1.7 SW 24 35 13 19 1012.7 1012.7 0.0
31/06:00pm 17.8 13.7 11.6 67 3.4 SW 24 37 13 20 1012.6 1012.6 0.0
31/05:30pm 17.8 14.0 12.3 70 3.0 SSW 24 32 13 17 1012.7 1012.7 0.0
31/05:00pm 17.8 12.0 10.9 64 3.7 SSW 32 41 17 22 1012.7 1012.7 0.0
31/04:30pm 18.9 13.5 11.0 60 4.3 SSW 30 43 16 23 1012.6 1012.6 0.0
31/04:00pm 20.1 15.1 10.8 55 5.1 SSW 28 39 15 21 1012.4 1012.4 0.0
31/03:30pm 20.4 14.7 9.9 51 5.6 SSW 30 43 16 23 1012.4 1012.4 0.0
31/03:00pm 20.0 14.5 10.4 54 5.2 SSW 30 43 16 23 1012.7 1012.7 0.0
31/02:30pm 20.7 15.8 9.9 50 5.8 SSW 26 39 14 21 1012.5 1012.5 0.0
31/02:00pm 21.2 16.2 9.4 47 6.3 SSW 26 37 14 20 1012.5 1012.5 0.0
31/01:30pm 21.4 17.1 9.3 46 6.5 SSW 22 32 12 17 1012.6 1012.6 0.0
31/01:00pm 20.3 15.4 8.6 47 6.1 SSW 24 35 13 19 1012.7 1012.7 0.0
31/12:30pm 19.4 14.7 9.3 52 5.3 SSW 24 35 13 19 1012.8 1012.8 0.0
31/12:00pm 19.5 14.9 8.2 48 5.8 SSW 22 33 12 18 1012.9 1012.9 0.0
31/11:30am 18.7 13.9 8.9 53 5.1 SSW 24 35 13 19 1012.8 1012.8 0.0
31/11:00am 19.5 14.6 10.0 54 5.1 SSW 26 33 14 18 1012.7 1012.7 0.0
31/10:30am 18.2 13.4 10.3 60 4.2 SSW 26 37 14 20 1012.8 1012.8 0.0
31/10:00am 17.9 13.2 10.5 62 4.0 SSW 26 33 14 18 1012.5 1012.5 0.0
31/09:30am 18.2 14.4 11.0 63 3.9 SSW 22 33 12 18 1012.5 1012.5 0.0
31/09:00am 17.4 13.2 11.0 66 3.4 SSW 24 32 13 17 1012.4 1012.4 0.0
31/08:30am 15.4 14.8 12.3 82 1.7 WSW 7 15 4 8 1012.3 1012.3 0.0
31/08:00am 13.1 12.2 11.3 89 1.0 WNW 7 11 4 6 1012.4 1012.4 0.0
31/07:30am 12.2 11.1 10.8 91 0.7 WNW 7 11 4 6 1012.2 1012.2 0.0
31/07:00am 12.1 10.7 10.8 92 0.7 WNW 9 13 5 7 1012.2 1012.2 0.0
31/06:30am 11.8 10.7 10.5 92 0.7 W 7 7 4 4 1012.0 1012.0 0.0
31/06:00am 11.8 10.3 10.4 91 0.7 WNW 9 11 5 6 1011.7 1011.7 0.0
31/05:30am 11.6 10.0 10.3 92 0.7 WNW 9 11 5 6 1011.5 1011.5 0.0
31/05:00am 11.5 9.9 10.1 91 0.7 WNW 9 13 5 7 1011.5 1011.5 0.0
31/04:30am 11.4 9.7 9.7 89 0.9 WNW 9 13 5 7 1011.6 1011.6 0.0
31/04:00am 11.6 10.2 9.5 87 1.1 WNW 7 11 4 6 1011.8 1011.8 0.0
31/03:30am 11.9 10.2 9.8 87 1.1 WNW 9 11 5 6 1012.0 1012.0 0.0
31/03:00am 12.1 11.0 9.8 86 1.2 WNW 6 7 3 4 1012.1 1012.1 0.0
31/02:30am 12.3 10.9 9.7 84 1.3 WNW 7 11 4 6 1012.3 1012.3 0.0
31/02:00am 12.9 11.6 10.1 83 1.4 W 7 11 4 6 1012.6 1012.6 0.0
31/01:30am 13.1 12.1 10.3 83 1.4 W 6 7 3 4 1012.9 1012.9 0.0
31/01:00am 13.2 11.9 10.0 81 1.6 WSW 7 9 4 5 1012.9 1012.9 0.0
31/12:30am 13.4 12.1 9.8 79 1.8 WSW 7 9 4 5 1013.1 1013.1 0.0
31/12:00am 13.4 12.2 9.5 77 2.0 WSW 6 9 3 5 1013.2 1013.2 0.0
 
Date/Time
EDT
Temp
°C
App
Temp
°C
Dew
Point
Rel
Hum
%
Delta-T
°C
Wind Press
QNH
hPa
Press
MSL
hPa
Rain
since 9 am
mm
Dir
 
Spd
km/h
Gust
km/h
Spd
kts
Gust
kts
30/11:30pm 13.8 12.3 9.3 74 2.3 WSW 7 9 4 5 1013.5 1013.5 0.0
30/11:00pm 14.2 12.8 9.4 73 2.5 SW 7 9 4 5 1013.8 1013.8 0.0
30/10:30pm 14.7 13.0 9.7 72 2.6 WSW 9 13 5 7 1014.0 1014.0 0.0
30/10:00pm 14.9 13.1 9.5 70 2.8 SW 9 9 5 5 1014.1 1014.1 0.0
30/09:30pm 15.2 13.7 9.1 67 3.1 SSW 7 13 4 7 1014.0 1014.0 0.0
30/09:00pm 15.7 13.4 9.1 65 3.4 S 11 15 6 8 1014.0 1014.0 0.0
30/08:30pm 16.3 13.7 9.3 63 3.6 S 13 20 7 11 1013.9 1013.9 0.0
30/08:00pm 16.8 13.4 9.2 61 3.9 S 17 24 9 13 1014.1 1014.1 0.0
30/07:30pm 17.3 13.5 9.0 58 4.3 S 19 26 10 14 1014.0 1014.0 0.0
30/07:00pm 17.8 13.6 8.4 54 4.8 S 20 30 11 16 1013.9 1013.9 0.0
30/06:30pm 17.9 13.7 8.2 53 5.0 SSE 20 28 11 15 1014.0 1014.0 0.0
30/06:00pm 18.4 13.9 8.4 52 5.2 SSE 22 30 12 16 1014.1 1014.1 0.0
30/05:30pm 18.5 13.5 7.9 50 5.4 SSE 24 35 13 19 1014.3 1014.3 0.0
30/05:00pm 19.7 15.4 7.8 46 6.1 SSE 20 32 11 17 1014.4 1014.4 0.0
30/04:30pm 19.6 15.0 8.3 48 5.9 SSE 22 32 12 17 1014.5 1014.5 0.0
30/04:00pm 20.0 14.8 7.4 44 6.4 S 24 32 13 17 1014.9 1014.9 0.0
30/03:30pm 20.1 15.6 7.1 43 6.6 S 20 32 11 17 1015.1 1015.1 0.0
30/03:00pm 19.8 15.8 8.2 47 6.0 SSE 19 28 10 15 1015.5 1015.5 0.0
30/02:30pm 19.9 15.1 7.3 44 6.4 SSE 22 32 12 17 1015.8 1015.8 0.0
30/02:00pm 20.3 15.7 8.3 46 6.2 S 22 33 12 18 1016.0 1016.0 0.0
30/01:30pm 20.2 15.8 7.6 44 6.5 SSE 20 32 11 17 1016.2 1016.2 0.0
30/01:00pm 19.9 16.3 8.3 47 6.0 S 17 30 9 16 1016.4 1016.4 0.0
30/12:30pm 19.8 16.1 7.9 46 6.1 S 17 28 9 15 1016.6 1016.6 0.0
30/12:00pm 20.0 16.1 8.7 48 5.9 SSE 19 28 10 15 1016.8 1016.8 0.0
30/11:30am 18.8 14.6 8.2 50 5.5 SE 20 28 11 15 1016.9 1016.9 0.0
30/11:00am 19.2 15.1 7.9 48 5.8 SSE 19 30 10 16 1017.0 1017.0 0.0
30/10:30am 18.9 15.7 8.3 50 5.5 SSE 15 28 8 15 1017.1 1017.1 0.0
30/10:00am 17.7 15.7 10.1 61 4.0 SE 11 17 6 9 1017.2 1017.2 0.0
30/09:30am 18.1 16.0 11.2 64 3.7 SE 13 20 7 11 1017.3 1017.3 0.0
30/09:00am 16.6 15.2 10.9 69 3.0 SE 9 17 5 9 1017.4 1017.4 0.0
30/08:30am 16.7 16.1 12.3 75 2.4 ESE 7 15 4 8 1017.2 1017.2 0.0
30/08:00am 16.1 15.7 12.5 79 2.0 E 6 11 3 6 1017.0 1017.0 0.0
30/07:30am 14.9 14.3 11.7 81 1.7 E 6 9 3 5 1016.7 1016.7 0.0
30/07:00am 14.5 13.5 10.9 79 1.9 SSE 7 13 4 7 1016.3 1016.3 0.0
30/06:30am 14.6 12.1 12.3 86 1.3 S 17 22 9 12 1016.3 1016.3 0.0
30/06:00am 11.9 11.0 9.1 83 1.4 S 4 6 2 3 1016.3 1016.3 0.0
30/05:30am 12.4 11.5 9.1 80 1.7 S 4 6 2 3 1016.3 1016.3 0.0
30/05:00am 12.8 11.6 9.6 81 1.6 S 6 7 3 4 1016.3 1016.3 0.0
30/04:30am 13.8 12.6 10.2 79 1.9 S 7 9 4 5 1016.5 1016.5 0.0
30/04:00am 14.5 13.0 10.7 78 2.0 S 9 13 5 7 1016.7 1016.7 0.0
30/03:30am 14.5 13.1 10.9 79 1.9 S 9 13 5 7 1017.1 1017.1 0.0
30/03:00am 15.3 13.2 11.3 77 2.1 S 13 19 7 10 1017.3 1017.3 0.0
30/02:30am 15.3 13.6 11.3 77 2.1 SSE 11 19 6 10 1017.5 1017.5 0.0
30/02:00am 15.3 14.5 11.1 76 2.2 SSE 6 9 3 5 1017.8 1017.8 0.0
30/01:30am 15.1 14.4 10.1 72 2.6 ESE 4 9 2 5 1018.0 1018.0 0.0
30/01:00am 15.2 14.0 10.2 72 2.6 ESE 7 13 4 7 1018.4 1018.4 0.0
30/12:30am 15.4 14.2 10.4 72 2.6 SE 7 9 4 5 1018.6 1018.6 0.0
30/12:00am 15.7 14.6 10.5 71 2.7 ESE 7 13 4 7 1018.8 1018.8 0.0
 
Date/Time
EDT
Temp
°C
App
Temp
°C
Dew
Point
Rel
Hum
%
Delta-T
°C
Wind Press
QNH
hPa
Press
MSL
hPa
Rain
since 9 am
mm
Dir
 
Spd
km/h
Gust
km/h
Spd
kts
Gust
kts
29/11:30pm 15.8 14.2 10.3 70 2.9 SE 9 13 5 7 1019.0 1019.0 0.0
29/11:00pm 16.0 14.1 10.5 70 2.9 SE 11 17 6 9 1019.1 1019.1 0.0
29/10:30pm 16.0 13.7 10.5 70 2.9 SSE 13 20 7 11 1019.2 1019.2 0.0
29/10:00pm 16.1 13.4 10.2 68 3.1 SSE 15 22 8 12 1019.2 1019.2 0.0
29/09:30pm 16.4 13.3 10.3 67 3.2 SSE 17 24 9 13 1019.2 1019.2 0.0
29/09:00pm 16.4 12.8 10.0 66 3.4 SSE 19 30 10 16 1019.2 1019.2 0.0
29/08:30pm 16.6 13.0 10.0 65 3.5 SSE 19 30 10 16 1019.2 1019.2 0.0
29/08:00pm 17.0 13.4 9.9 63 3.7 SSE 19 32 10 17 1019.1 1019.1 0.0
29/07:30pm 17.3 13.1 9.7 61 4.0 SSE 22 32 12 17 1018.9 1018.9 0.0
29/07:00pm 17.8 12.9 9.9 60 4.2 SSE 26 39 14 21 1018.8 1018.8 0.0
29/06:30pm 17.8 12.1 9.7 59 4.3 SSE 30 43 16 23 1018.8 1018.8 0.0
29/06:00pm 18.1 12.8 9.7 58 4.4 SSE 28 43 15 23 1018.7 1018.7 0.0
29/05:30pm 18.7 13.1 10.0 57 4.6 SSE 30 43 16 23 1018.9 1018.9 0.0
29/05:00pm 18.9 13.1 9.4 54 5.0 SSE 30 43 16 23 1019.2 1019.2 0.0
29/04:30pm 19.6 13.7 8.9 50 5.6 SSE 30 43 16 23 1019.5 1019.5 0.0
29/04:00pm 20.2 14.3 9.2 49 5.8 SSE 30 43 16 23 1019.8 1019.8 0.0
29/03:30pm 19.8 14.2 8.8 49 5.8 SSE 28 44 15 24 1020.0 1020.0 0.0
29/03:00pm 19.9 14.3 8.6 48 5.9 SSE 28 37 15 20 1020.2 1020.2 0.0
29/02:30pm 19.6 14.0 8.6 49 5.7 SSE 28 39 15 21 1020.4 1020.4 0.0
29/02:00pm 19.0 14.1 8.6 51 5.4 SSE 24 35 13 19 1020.7 1020.7 0.0
29/01:30pm 20.8 16.1 9.1 47 6.2 SSE 24 37 13 20 1020.8 1020.8 0.0
29/01:00pm 19.6 14.6 8.0 47 6.0 S 24 35 13 19 1020.9 1020.9 0.0
29/12:30pm 19.5 14.8 7.9 47 6.0 SSE 22 32 12 17 1021.1 1021.1 0.0
29/12:00pm 20.3 15.3 8.0 45 6.3 SSE 24 35 13 19 1021.2 1021.2 0.0
29/11:30am 18.9 14.3 6.7 45 6.1 SSE 20 32 11 17 1021.4 1021.4 0.0
29/11:00am 19.4 15.1 7.8 47 5.9 SE 20 37 11 20 1021.4 1021.4 0.0
29/10:30am 19.2 14.8 7.3 46 6.0 SE 20 32 11 17 1021.4 1021.4 0.0
29/10:00am 18.9 15.8 8.8 52 5.2 SE 15 28 8 15 1021.4 1021.4 0.0

Other Formats:

Comma delimited format used in spreadsheet applications
http://www.bom.gov.au/fwo/IDV60801/IDV60801.94857.axf

JavaScript Object Notation format (JSON) in row-major order
http://www.bom.gov.au/fwo/IDV60801/IDV60801.94857.json